createdAt,value
2018-12-14T00:00:33.781Z,8.90
2018-12-14T00:01:33.791Z,8.00
2018-12-14T00:02:33.767Z,8.60
2018-12-14T00:03:33.767Z,8.20
2018-12-14T00:04:33.768Z,8.60
2018-12-14T00:05:33.724Z,8.70
2018-12-14T00:06:33.745Z,8.50
2018-12-14T00:07:33.719Z,8.40
2018-12-14T00:08:33.711Z,8.20
2018-12-14T00:09:33.698Z,7.90
2018-12-14T00:10:33.685Z,8.00
2018-12-14T00:11:33.679Z,8.80
2018-12-14T00:12:33.657Z,8.40
2018-12-14T00:13:33.650Z,8.20
2018-12-14T00:14:33.643Z,8.50
2018-12-14T00:15:33.644Z,7.60
2018-12-14T00:16:33.637Z,9.00
2018-12-14T00:17:33.618Z,9.00
2018-12-14T00:18:33.591Z,8.20
2018-12-14T00:19:33.573Z,8.70
2018-12-14T00:20:33.612Z,8.50
2018-12-14T00:21:33.584Z,8.30
2018-12-14T00:22:33.544Z,8.40
2018-12-14T00:23:33.529Z,7.60
2018-12-14T00:24:33.520Z,7.90
2018-12-14T00:25:33.507Z,8.70
2018-12-14T00:26:33.547Z,9.00
2018-12-14T00:27:33.498Z,8.70
2018-12-14T00:28:33.481Z,7.80
2018-12-14T00:29:33.471Z,9.10
2018-12-14T00:30:33.461Z,8.70
2018-12-14T00:31:33.440Z,9.30
2018-12-14T00:32:33.454Z,8.60
2018-12-14T00:33:33.420Z,9.70
2018-12-14T00:34:33.427Z,9.70
2018-12-14T00:35:33.409Z,9.10
2018-12-14T00:36:33.401Z,10.70
2018-12-14T00:37:33.403Z,8.70
2018-12-14T00:38:33.388Z,9.70
2018-12-14T00:39:33.365Z,8.90
2018-12-14T00:40:33.359Z,9.70
2018-12-14T00:41:33.343Z,9.70
2018-12-14T00:42:33.338Z,9.90
2018-12-14T00:43:33.343Z,8.60
2018-12-14T00:44:33.325Z,9.80
2018-12-14T00:45:33.285Z,9.90
2018-12-14T00:46:33.295Z,9.10
2018-12-14T00:47:33.280Z,8.80
2018-12-14T00:48:33.282Z,8.20
2018-12-14T00:49:33.295Z,8.80
2018-12-14T00:50:33.236Z,7.80
2018-12-14T00:51:33.221Z,8.30
2018-12-14T00:52:33.231Z,8.00
2018-12-14T00:53:33.228Z,7.10
2018-12-14T00:54:33.195Z,7.80
2018-12-14T00:55:33.193Z,6.70
2018-12-14T00:56:33.202Z,8.40
2018-12-14T00:57:33.172Z,6.50
2018-12-14T00:58:33.157Z,7.50
2018-12-14T00:59:33.147Z,6.70
2018-12-14T01:00:33.130Z,6.10
2018-12-14T01:01:33.128Z,6.70
2018-12-14T01:02:33.130Z,6.20
2018-12-14T01:03:33.090Z,6.10
2018-12-14T01:04:33.092Z,6.30
2018-12-14T01:05:33.087Z,6.20
2018-12-14T01:06:33.072Z,6.00
2018-12-14T01:07:33.081Z,5.90
2018-12-14T01:08:33.042Z,6.10
2018-12-14T01:09:33.029Z,5.90
2018-12-14T01:10:33.048Z,6.00
2018-12-14T01:11:33.022Z,6.40
2018-12-14T01:12:33.025Z,6.70
2018-12-14T01:13:33.000Z,7.10
2018-12-14T01:14:32.987Z,5.90
2018-12-14T01:15:32.969Z,6.10
2018-12-14T01:16:32.959Z,5.20
2018-12-14T01:17:32.952Z,6.80
2018-12-14T01:18:32.938Z,6.70
2018-12-14T01:19:32.927Z,6.10
2018-12-14T01:20:32.929Z,6.60
2018-12-14T01:21:32.928Z,6.00
2018-12-14T01:22:32.913Z,6.90
2018-12-14T01:23:32.899Z,6.90
2018-12-14T01:24:32.875Z,6.80
2018-12-14T01:25:32.869Z,6.30
2018-12-14T01:26:32.847Z,6.80
2018-12-14T01:27:32.844Z,6.30
2018-12-14T01:28:32.860Z,6.50
2018-12-14T01:29:32.819Z,6.40
2018-12-14T01:30:32.822Z,5.90
2018-12-14T01:31:32.806Z,5.70
2018-12-14T01:32:32.797Z,6.60
2018-12-14T01:33:32.783Z,7.00
2018-12-14T01:34:32.792Z,6.70
2018-12-14T01:35:32.756Z,6.70
2018-12-14T01:36:32.753Z,6.80
2018-12-14T01:37:32.748Z,7.30
2018-12-14T01:38:32.732Z,7.20
2018-12-14T01:39:32.716Z,7.90
2018-12-14T01:40:32.717Z,8.40
2018-12-14T01:41:32.685Z,8.20
2018-12-14T01:42:32.685Z,9.30
2018-12-14T01:43:32.674Z,8.70
2018-12-14T01:44:32.666Z,8.70
2018-12-14T01:45:32.701Z,8.40
2018-12-14T01:46:32.636Z,8.50
2018-12-14T01:47:32.625Z,7.40
2018-12-14T01:48:32.603Z,7.60
2018-12-14T01:49:32.609Z,7.60
2018-12-14T01:50:32.602Z,7.50
2018-12-14T01:51:32.602Z,7.20
2018-12-14T01:52:32.583Z,7.70
2018-12-14T01:53:32.565Z,7.10
2018-12-14T01:54:32.561Z,8.20
2018-12-14T01:55:32.572Z,7.60
2018-12-14T01:56:32.531Z,7.60
2018-12-14T01:57:32.519Z,7.50
2018-12-14T01:58:32.498Z,7.70
2018-12-14T01:59:32.494Z,8.10
2018-12-14T02:00:32.477Z,7.70
2018-12-14T02:01:32.499Z,8.80
2018-12-14T02:02:32.497Z,8.60
2018-12-14T02:03:32.487Z,9.00
2018-12-14T02:04:32.438Z,8.90
2018-12-14T02:05:32.437Z,8.80
2018-12-14T02:06:32.432Z,9.80
2018-12-14T02:07:32.400Z,11.60
2018-12-14T02:08:32.430Z,11.00
2018-12-14T02:09:32.390Z,11.70
2018-12-14T02:10:32.376Z,11.80
2018-12-14T02:11:32.399Z,13.70
2018-12-14T02:12:32.378Z,14.00
2018-12-14T02:13:32.358Z,15.20
2018-12-14T02:14:32.334Z,15.40
2018-12-14T02:15:32.358Z,13.00
2018-12-14T02:16:32.332Z,12.70
2018-12-14T02:17:32.311Z,11.70
2018-12-14T02:18:32.294Z,9.10
2018-12-14T02:19:32.263Z,9.20
2018-12-14T02:20:32.252Z,8.10
2018-12-14T02:21:32.282Z,7.20
2018-12-14T02:22:32.250Z,7.50
2018-12-14T02:23:32.243Z,8.10
2018-12-14T02:24:32.229Z,7.20
2018-12-14T02:25:32.227Z,6.40
2018-12-14T02:26:32.205Z,6.90
2018-12-14T02:27:32.218Z,6.80
2018-12-14T02:28:32.189Z,7.40
2018-12-14T02:29:32.179Z,7.50
2018-12-14T02:30:32.157Z,7.60
2018-12-14T02:31:32.148Z,7.20
2018-12-14T02:32:32.133Z,7.60
2018-12-14T02:33:32.141Z,7.90
2018-12-14T02:34:32.120Z,8.00
2018-12-14T02:35:32.117Z,7.90
2018-12-14T02:36:32.097Z,7.50
2018-12-14T02:37:32.087Z,7.00
2018-12-14T02:38:32.088Z,7.90
2018-12-14T02:39:32.058Z,8.50
2018-12-14T02:40:32.048Z,7.80
2018-12-14T02:41:32.036Z,7.60
2018-12-14T02:42:32.038Z,7.80
2018-12-14T02:43:32.119Z,7.20
2018-12-14T02:44:32.011Z,8.30
2018-12-14T02:45:32.014Z,8.10
2018-12-14T02:46:31.993Z,8.20
2018-12-14T02:47:31.979Z,7.90
2018-12-14T02:48:31.977Z,8.70
2018-12-14T02:49:31.985Z,8.20
2018-12-14T02:50:31.963Z,8.10
2018-12-14T02:51:31.927Z,8.20
2018-12-14T02:52:31.918Z,7.60
2018-12-14T02:53:31.904Z,8.30
2018-12-14T02:54:31.923Z,8.50
2018-12-14T02:55:31.891Z,8.80
2018-12-14T02:56:31.900Z,8.60
2018-12-14T02:57:31.869Z,7.90
2018-12-14T02:58:31.877Z,8.70
2018-12-14T02:59:31.847Z,8.20
2018-12-14T03:00:31.866Z,8.30
2018-12-14T03:01:31.830Z,8.50
2018-12-14T03:02:31.805Z,7.60
2018-12-14T03:03:31.799Z,8.90
2018-12-14T03:04:31.836Z,9.40
2018-12-14T03:05:31.779Z,8.10
2018-12-14T03:06:31.784Z,8.10
2018-12-14T03:07:31.768Z,9.00
2018-12-14T03:08:31.755Z,9.10
2018-12-14T03:09:31.775Z,10.00
2018-12-14T03:10:31.718Z,8.50
2018-12-14T03:11:31.709Z,9.30
2018-12-14T03:12:31.695Z,9.20
2018-12-14T03:13:31.691Z,9.40
2018-12-14T03:14:31.680Z,9.70
2018-12-14T03:15:31.695Z,9.30
2018-12-14T03:16:31.660Z,9.20
2018-12-14T03:17:31.646Z,9.50
2018-12-14T03:18:31.642Z,9.60
2018-12-14T03:19:31.632Z,10.00
2018-12-14T03:20:31.649Z,9.10
2018-12-14T03:21:31.619Z,9.60
2018-12-14T03:22:31.586Z,9.90
2018-12-14T03:23:31.593Z,9.70
2018-12-14T03:24:31.587Z,10.40
2018-12-14T03:25:31.569Z,9.50
2018-12-14T03:26:31.557Z,9.90
2018-12-14T03:27:31.557Z,9.40
2018-12-14T03:28:31.541Z,10.10
2018-12-14T03:29:31.524Z,9.40
2018-12-14T03:30:31.536Z,9.40
2018-12-14T03:31:31.516Z,9.20
2018-12-14T03:32:31.492Z,10.20
2018-12-14T03:33:31.488Z,9.30
2018-12-14T03:34:31.455Z,9.00
2018-12-14T03:35:31.454Z,9.80
2018-12-14T03:36:31.464Z,9.10
2018-12-14T03:37:31.454Z,10.70
2018-12-14T03:38:31.438Z,10.40
2018-12-14T03:39:31.417Z,9.50
2018-12-14T03:40:31.435Z,9.30
2018-12-14T03:41:31.438Z,9.80
2018-12-14T03:42:34.613Z,9.50
2018-12-14T03:43:31.371Z,10.00
2018-12-14T03:44:31.350Z,9.20
2018-12-14T03:45:31.395Z,10.20
2018-12-14T03:46:31.340Z,10.20
2018-12-14T03:47:31.353Z,10.20
2018-12-14T03:48:31.320Z,10.00
2018-12-14T03:49:31.314Z,9.80
2018-12-14T03:50:31.302Z,10.00
2018-12-14T03:51:31.310Z,9.80
2018-12-14T03:52:31.303Z,10.10
2018-12-14T03:53:31.263Z,10.30
2018-12-14T03:54:31.253Z,9.40
2018-12-14T03:55:31.271Z,9.00
2018-12-14T03:56:31.234Z,11.10
2018-12-14T03:57:31.210Z,9.50
2018-12-14T03:58:31.203Z,9.60
2018-12-14T03:59:31.212Z,9.90
2018-12-14T04:00:31.234Z,10.10
2018-12-14T04:01:31.185Z,9.40
2018-12-14T04:02:31.168Z,10.20
2018-12-14T04:03:31.153Z,9.20
2018-12-14T04:04:31.143Z,9.20
2018-12-14T04:05:31.176Z,9.50
2018-12-14T04:06:31.134Z,9.80
2018-12-14T04:07:31.111Z,9.60
2018-12-14T04:08:31.104Z,9.80
2018-12-14T04:09:31.089Z,9.50
2018-12-14T04:10:31.080Z,10.70
2018-12-14T04:11:31.088Z,9.70
2018-12-14T04:12:31.066Z,9.90
2018-12-14T04:13:31.051Z,8.90
2018-12-14T04:14:31.041Z,9.90
2018-12-14T04:15:31.018Z,9.70
2018-12-14T04:16:31.024Z,9.00
2018-12-14T04:17:31.025Z,9.80
2018-12-14T04:18:30.995Z,9.50
2018-12-14T04:19:30.994Z,10.40
2018-12-14T04:20:30.976Z,9.30
2018-12-14T04:21:30.991Z,10.60
2018-12-14T04:22:30.959Z,10.10
2018-12-14T04:23:30.957Z,9.60
2018-12-14T04:24:30.935Z,9.40
2018-12-14T04:25:30.919Z,9.80
2018-12-14T04:26:30.944Z,9.40
2018-12-14T04:27:30.931Z,10.50
2018-12-14T04:28:30.892Z,9.60
2018-12-14T04:29:30.879Z,11.20
2018-12-14T04:30:30.874Z,10.60
2018-12-14T04:31:30.870Z,9.80
2018-12-14T04:32:30.856Z,11.30
2018-12-14T04:33:30.863Z,10.60
2018-12-14T04:34:30.812Z,10.20
2018-12-14T04:35:30.820Z,9.80
2018-12-14T04:36:30.858Z,10.60
2018-12-14T04:37:30.798Z,10.40
2018-12-14T04:38:30.797Z,10.30
2018-12-14T04:39:31.290Z,10.20
2018-12-14T04:40:30.760Z,10.90
2018-12-14T04:41:30.745Z,11.00
2018-12-14T04:42:30.770Z,9.70
2018-12-14T04:43:30.770Z,10.70
2018-12-14T04:44:30.718Z,10.20
2018-12-14T04:45:30.738Z,10.50
2018-12-14T04:46:30.677Z,10.20
2018-12-14T04:47:30.757Z,10.10
2018-12-14T04:48:30.664Z,9.00
2018-12-14T04:49:30.680Z,9.40
2018-12-14T04:50:30.656Z,9.60
2018-12-14T04:51:30.646Z,10.00
2018-12-14T04:52:30.652Z,8.60
2018-12-14T04:53:30.635Z,9.40
2018-12-14T04:54:30.622Z,9.40
2018-12-14T04:55:30.615Z,9.70
2018-12-14T04:56:30.583Z,8.70
2018-12-14T04:57:30.588Z,9.40
2018-12-14T04:58:30.564Z,10.10
2018-12-14T04:59:30.561Z,9.30
2018-12-14T05:00:30.538Z,9.90
2018-12-14T05:01:30.527Z,9.30
2018-12-14T05:02:30.524Z,9.20
2018-12-14T05:03:30.528Z,9.20
2018-12-14T05:04:30.635Z,9.10
2018-12-14T05:05:30.509Z,9.90
2018-12-14T05:06:31.526Z,9.30
2018-12-14T05:07:30.493Z,8.50
2018-12-14T05:08:30.457Z,8.30
2018-12-14T05:09:30.496Z,8.70
2018-12-14T05:10:30.447Z,9.20
2018-12-14T05:11:30.412Z,9.30
2018-12-14T05:12:30.406Z,9.20
2018-12-14T05:13:30.388Z,9.60
2018-12-14T05:14:30.441Z,10.00
2018-12-14T05:15:30.388Z,9.50
2018-12-14T05:16:30.376Z,10.50
2018-12-14T05:17:30.362Z,10.00
2018-12-14T05:18:30.353Z,10.10
2018-12-14T05:19:30.339Z,10.00
2018-12-14T05:20:30.346Z,10.30
2018-12-14T05:21:30.305Z,10.50
2018-12-14T05:22:30.322Z,9.90
2018-12-14T05:23:30.292Z,10.50
2018-12-14T05:24:30.286Z,10.80
2018-12-14T05:25:30.298Z,10.90
2018-12-14T05:26:30.266Z,10.30
2018-12-14T05:27:30.250Z,11.20
2018-12-14T05:28:30.249Z,10.70
2018-12-14T05:29:30.227Z,11.70
2018-12-14T05:30:30.238Z,11.50
2018-12-14T05:31:30.202Z,11.10
2018-12-14T05:32:30.192Z,10.60
2018-12-14T05:33:30.185Z,11.40
2018-12-14T05:34:30.190Z,10.90
2018-12-14T05:35:30.200Z,11.60
2018-12-14T05:36:30.175Z,12.10
2018-12-14T05:37:30.147Z,11.60
2018-12-14T05:38:30.127Z,11.60
2018-12-14T05:39:30.121Z,12.00
2018-12-14T05:40:30.147Z,10.90
2018-12-14T05:41:31.355Z,12.80
2018-12-14T05:42:30.096Z,12.00
2018-12-14T05:43:30.091Z,12.30
2018-12-14T05:44:30.091Z,12.80
2018-12-14T05:45:30.080Z,12.10
2018-12-14T05:46:30.063Z,12.60
2018-12-14T05:47:30.036Z,12.60
2018-12-14T05:48:30.027Z,11.80
2018-12-14T05:49:30.017Z,12.50
2018-12-14T05:50:30.035Z,11.90
2018-12-14T05:51:29.989Z,13.80
2018-12-14T05:52:29.986Z,12.10
2018-12-14T05:53:29.986Z,12.70
2018-12-14T05:54:29.981Z,12.20
2018-12-14T05:55:29.954Z,13.40
2018-12-14T05:56:29.928Z,12.80
2018-12-14T05:57:29.927Z,12.00
2018-12-14T05:58:29.940Z,13.30
2018-12-14T05:59:29.931Z,11.90
2018-12-14T06:00:29.917Z,12.40
2018-12-14T06:01:29.904Z,12.60
2018-12-14T06:02:29.867Z,12.70
2018-12-14T06:03:29.877Z,11.70
2018-12-14T06:04:29.879Z,12.40
2018-12-14T06:05:29.865Z,13.00
2018-12-14T06:06:29.829Z,11.90
2018-12-14T06:07:29.823Z,12.90
2018-12-14T06:08:29.826Z,12.30
2018-12-14T06:09:29.819Z,12.60
2018-12-14T06:10:29.810Z,12.30
2018-12-14T06:11:29.767Z,12.40
2018-12-14T06:12:29.768Z,12.20
2018-12-14T06:13:29.761Z,11.70
2018-12-14T06:14:29.738Z,11.90
2018-12-14T06:15:29.758Z,13.00
2018-12-14T06:16:29.847Z,13.00
2018-12-14T06:17:29.705Z,12.90
2018-12-14T06:18:29.715Z,12.80
2018-12-14T06:19:29.701Z,12.90
2018-12-14T06:20:29.671Z,12.10
2018-12-14T06:21:29.690Z,11.80
2018-12-14T06:22:29.667Z,11.10
2018-12-14T06:23:29.666Z,13.50
2018-12-14T06:24:29.630Z,12.20
2018-12-14T06:25:29.639Z,12.70
2018-12-14T06:26:29.622Z,11.40
2018-12-14T06:27:29.615Z,12.00
2018-12-14T06:28:29.605Z,12.30
2018-12-14T06:29:29.605Z,12.50
2018-12-14T06:30:29.569Z,11.80
2018-12-14T06:31:29.576Z,12.10
2018-12-14T06:32:29.553Z,11.60
2018-12-14T06:33:29.526Z,10.10
2018-12-14T06:34:29.572Z,12.10
2018-12-14T06:35:29.514Z,10.20
2018-12-14T06:36:29.513Z,10.60
2018-12-14T06:37:29.523Z,10.60
2018-12-14T06:38:29.490Z,10.70
2018-12-14T06:39:29.553Z,10.30
2018-12-14T06:40:29.504Z,10.90
2018-12-14T06:41:29.450Z,11.10
2018-12-14T06:42:29.442Z,10.50
2018-12-14T06:43:29.434Z,10.60
2018-12-14T06:44:29.429Z,11.20
2018-12-14T06:45:29.408Z,11.30
2018-12-14T06:46:29.438Z,10.50
2018-12-14T06:47:29.389Z,11.20
2018-12-14T06:48:29.391Z,11.80
2018-12-14T06:49:29.375Z,10.70
2018-12-14T06:50:29.365Z,10.20
2018-12-14T06:51:29.374Z,10.60
2018-12-14T06:52:29.354Z,10.80
2018-12-14T06:53:29.317Z,11.90
2018-12-14T06:54:29.325Z,10.60
2018-12-14T06:55:29.309Z,10.60
2018-12-14T06:56:29.315Z,10.70
2018-12-14T06:57:29.318Z,11.40
2018-12-14T06:58:29.264Z,10.30
2018-12-14T06:59:29.248Z,11.00
2018-12-14T07:00:29.256Z,10.90
2018-12-14T07:01:29.269Z,11.20
2018-12-14T07:02:29.242Z,9.90
2018-12-14T07:03:29.219Z,11.50
2018-12-14T07:04:29.220Z,11.20
2018-12-14T07:05:29.203Z,11.20
2018-12-14T07:06:29.202Z,10.80
2018-12-14T07:07:29.202Z,11.00
2018-12-14T07:08:29.181Z,11.60
2018-12-14T07:09:29.159Z,9.50
2018-12-14T07:10:29.126Z,10.90
2018-12-14T07:11:29.171Z,11.50
2018-12-14T07:12:29.125Z,10.80
2018-12-14T07:13:29.118Z,11.00
2018-12-14T07:14:29.098Z,10.20
2018-12-14T07:15:29.098Z,10.40
2018-12-14T07:16:29.065Z,11.40
2018-12-14T07:17:29.078Z,12.40
2018-12-14T07:18:29.056Z,11.10
2018-12-14T07:19:29.134Z,11.00
2018-12-14T07:20:29.029Z,11.10
2018-12-14T07:21:29.034Z,10.70
2018-12-14T07:22:29.016Z,9.60
2018-12-14T07:23:28.993Z,10.40
2018-12-14T07:24:28.981Z,10.20
2018-12-14T07:25:28.986Z,10.10
2018-12-14T07:26:28.971Z,11.40
2018-12-14T07:27:28.977Z,11.80
2018-12-14T07:28:28.948Z,10.40
2018-12-14T07:29:28.969Z,10.90
2018-12-14T07:30:28.922Z,11.40
2018-12-14T07:31:28.925Z,10.40
2018-12-14T07:32:28.910Z,10.70
2018-12-14T07:33:28.895Z,11.70
2018-12-14T07:34:28.883Z,9.50
2018-12-14T07:35:28.879Z,10.90
2018-12-14T07:36:28.876Z,10.50
2018-12-14T07:37:28.842Z,10.70
2018-12-14T07:38:28.843Z,10.80
2018-12-14T07:39:28.838Z,11.70
2018-12-14T07:40:28.853Z,10.40
2018-12-14T07:41:28.824Z,11.40
2018-12-14T07:42:28.788Z,11.70
2018-12-14T07:43:28.780Z,10.20
2018-12-14T07:44:28.827Z,11.10
2018-12-14T07:45:28.783Z,10.70
2018-12-14T07:46:28.814Z,10.20
2018-12-14T07:47:28.739Z,10.20
2018-12-14T07:48:28.729Z,10.70
2018-12-14T07:49:28.713Z,9.80
2018-12-14T07:50:28.752Z,10.20
2018-12-14T07:51:28.699Z,10.30
2018-12-14T07:52:28.702Z,11.20
2018-12-14T07:53:28.684Z,11.40
2018-12-14T07:54:28.664Z,11.00
2018-12-14T07:55:28.646Z,10.50
2018-12-14T07:56:28.678Z,10.40
2018-12-14T07:57:28.697Z,11.90
2018-12-14T07:58:28.627Z,9.40
2018-12-14T07:59:28.621Z,11.30
2018-12-14T08:00:28.612Z,11.50
2018-12-14T08:01:28.612Z,10.90
2018-12-14T08:02:28.590Z,10.80
2018-12-14T08:03:28.565Z,10.70
2018-12-14T08:04:28.569Z,11.60
2018-12-14T08:05:28.549Z,10.50
2018-12-14T08:06:28.537Z,10.30
2018-12-14T08:07:28.549Z,11.40
2018-12-14T08:08:28.518Z,11.00
2018-12-14T08:09:28.516Z,11.30
2018-12-14T08:10:28.509Z,10.20
2018-12-14T08:11:28.487Z,11.30
2018-12-14T08:12:28.512Z,10.90
2018-12-14T08:13:34.689Z,10.80
2018-12-14T08:14:29.445Z,10.00
2018-12-14T08:15:28.440Z,11.20
2018-12-14T08:16:28.434Z,11.00
2018-12-14T08:17:28.409Z,11.40
2018-12-14T08:18:28.440Z,11.30
2018-12-14T08:19:28.407Z,12.50
2018-12-14T08:20:28.384Z,11.50
2018-12-14T08:21:28.375Z,11.70
2018-12-14T08:22:28.378Z,11.10
2018-12-14T08:23:28.369Z,12.20
2018-12-14T08:24:28.359Z,12.00
2018-12-14T08:25:28.342Z,11.20
2018-12-14T08:26:28.312Z,11.80
2018-12-14T08:27:28.339Z,11.20
2018-12-14T08:28:28.317Z,11.30
2018-12-14T08:29:28.297Z,11.90
2018-12-14T08:30:28.275Z,11.60
2018-12-14T08:31:28.275Z,12.20
2018-12-14T08:32:28.258Z,10.90
2018-12-14T08:33:28.255Z,11.20
2018-12-14T08:34:28.250Z,10.80
2018-12-14T08:35:28.226Z,11.30
2018-12-14T08:36:28.217Z,11.40
2018-12-14T08:37:28.217Z,10.70
2018-12-14T08:38:28.186Z,12.00
2018-12-14T08:39:28.182Z,11.40
2018-12-14T08:40:28.194Z,12.60
2018-12-14T08:41:28.163Z,11.30
2018-12-14T08:42:28.154Z,12.00
2018-12-14T08:43:28.138Z,11.50
2018-12-14T08:44:28.128Z,11.90
2018-12-14T08:45:28.127Z,11.70
2018-12-14T08:46:28.137Z,12.10
2018-12-14T08:47:28.103Z,11.50
2018-12-14T08:48:28.082Z,11.20
2018-12-14T08:49:28.089Z,11.20
2018-12-14T08:50:28.061Z,11.60
2018-12-14T08:51:28.079Z,11.50
2018-12-14T08:52:28.043Z,11.00
2018-12-14T08:53:28.042Z,11.10
2018-12-14T08:54:28.027Z,10.80
2018-12-14T08:55:28.018Z,11.30
2018-12-14T08:56:28.022Z,10.60
2018-12-14T08:57:28.008Z,11.80
2018-12-14T08:58:27.970Z,10.70
2018-12-14T08:59:27.971Z,10.80
2018-12-14T09:00:27.951Z,10.40
2018-12-14T09:01:27.968Z,11.20
2018-12-14T09:02:27.973Z,11.40
2018-12-14T09:03:27.931Z,11.40
2018-12-14T09:04:27.922Z,10.80
2018-12-14T09:05:27.899Z,10.40
2018-12-14T09:06:27.884Z,10.20
2018-12-14T09:07:27.902Z,11.50
2018-12-14T09:08:27.892Z,11.10
2018-12-14T09:09:27.860Z,10.50
2018-12-14T09:10:27.833Z,10.60
2018-12-14T09:11:27.832Z,9.90
2018-12-14T09:12:27.848Z,10.60
2018-12-14T09:13:27.815Z,10.80
2018-12-14T09:14:27.879Z,10.80
2018-12-14T09:15:27.791Z,10.30
2018-12-14T09:16:27.785Z,10.00
2018-12-14T09:17:27.773Z,11.20
2018-12-14T09:18:27.785Z,10.70
2018-12-14T09:19:27.744Z,11.30
2018-12-14T09:20:27.734Z,11.60
2018-12-14T09:21:27.719Z,10.20
2018-12-14T09:22:27.721Z,10.50
2018-12-14T09:23:27.705Z,9.90
2018-12-14T09:24:27.755Z,10.90
2018-12-14T09:25:27.676Z,9.90
2018-12-14T09:26:27.689Z,10.50
2018-12-14T09:27:27.667Z,10.20
2018-12-14T09:28:27.660Z,10.80
2018-12-14T09:29:27.639Z,11.40
2018-12-14T09:30:27.649Z,10.10
2018-12-14T09:31:27.617Z,10.80
2018-12-14T09:32:27.603Z,10.10
2018-12-14T09:33:27.599Z,10.70
2018-12-14T09:34:27.609Z,10.40
2018-12-14T09:35:27.583Z,9.80
2018-12-14T09:36:27.566Z,10.30
2018-12-14T09:37:27.555Z,9.80
2018-12-14T09:38:27.528Z,9.50
2018-12-14T09:39:27.558Z,8.90
2018-12-14T09:40:27.515Z,9.00
2018-12-14T09:41:27.522Z,8.80
2018-12-14T09:42:27.490Z,10.10
2018-12-14T09:43:27.485Z,9.50
2018-12-14T09:44:27.466Z,9.40
2018-12-14T09:45:27.520Z,10.20
2018-12-14T09:46:27.457Z,10.20
2018-12-14T09:47:27.450Z,9.40
2018-12-14T09:48:27.464Z,10.20
2018-12-14T09:49:27.429Z,10.20
2018-12-14T09:50:27.421Z,9.80
2018-12-14T09:51:27.397Z,9.10
2018-12-14T09:52:27.387Z,10.00
2018-12-14T09:53:27.364Z,8.70
2018-12-14T09:54:27.376Z,9.20
2018-12-14T09:55:27.382Z,9.00
2018-12-14T09:56:27.343Z,9.30
2018-12-14T09:57:27.336Z,9.20
2018-12-14T09:58:27.330Z,8.60
2018-12-14T09:59:27.332Z,8.80
2018-12-14T10:00:27.307Z,9.40
2018-12-14T10:01:27.317Z,9.20
2018-12-14T10:02:27.286Z,9.10
2018-12-14T10:03:27.257Z,8.80
2018-12-14T10:04:27.331Z,8.10
2018-12-14T10:05:27.237Z,8.20
2018-12-14T10:06:27.283Z,8.20
2018-12-14T10:07:27.229Z,8.70
2018-12-14T10:08:27.220Z,9.40
2018-12-14T10:09:27.215Z,8.30
2018-12-14T10:10:27.201Z,8.90
2018-12-14T10:11:27.180Z,9.50
2018-12-14T10:12:27.217Z,9.30
2018-12-14T10:13:27.162Z,9.50
2018-12-14T10:14:27.151Z,8.80
2018-12-14T10:15:27.148Z,9.20
2018-12-14T10:16:27.150Z,7.70
2018-12-14T10:17:27.110Z,9.00
2018-12-14T10:18:27.117Z,8.60
2018-12-14T10:19:27.093Z,8.70
2018-12-14T10:20:27.093Z,8.20
2018-12-14T10:21:27.111Z,8.70
2018-12-14T10:22:27.062Z,7.90
2018-12-14T10:23:27.045Z,8.70
2018-12-14T10:24:27.061Z,8.20
2018-12-14T10:25:27.021Z,7.90
2018-12-14T10:26:27.053Z,9.50
2018-12-14T10:27:27.126Z,8.50
2018-12-14T10:28:27.004Z,8.70
2018-12-14T10:29:27.007Z,8.40
2018-12-14T10:30:26.970Z,8.30
2018-12-14T10:31:26.970Z,7.20
2018-12-14T10:32:26.967Z,8.90
2018-12-14T10:33:26.979Z,7.90
2018-12-14T10:34:26.923Z,7.80
2018-12-14T10:35:26.921Z,8.10
2018-12-14T10:36:26.930Z,7.80
2018-12-14T10:37:26.930Z,7.50
2018-12-14T10:38:26.887Z,7.70
2018-12-14T10:39:26.890Z,6.90
2018-12-14T10:40:26.876Z,8.50
2018-12-14T10:41:26.892Z,8.20
2018-12-14T10:42:26.842Z,7.20
2018-12-14T10:43:26.835Z,7.30
2018-12-14T10:44:29.924Z,6.50
2018-12-14T10:45:26.814Z,7.10
2018-12-14T10:46:26.787Z,6.40
2018-12-14T10:47:26.790Z,6.90
2018-12-14T10:48:26.776Z,7.20
2018-12-14T10:49:26.791Z,6.60
2018-12-14T10:50:26.768Z,7.60
2018-12-14T10:51:26.754Z,6.50
2018-12-14T10:52:26.737Z,7.00
2018-12-14T10:53:26.737Z,6.80
2018-12-14T10:54:26.707Z,6.80
2018-12-14T10:55:26.797Z,6.80
2018-12-14T10:56:26.694Z,6.50
2018-12-14T10:57:26.672Z,6.50
2018-12-14T10:58:26.668Z,6.00
2018-12-14T10:59:26.673Z,6.30
2018-12-14T11:00:26.660Z,6.40
2018-12-14T11:01:26.646Z,6.80
2018-12-14T11:02:26.634Z,6.50
2018-12-14T11:03:26.619Z,6.60
2018-12-14T11:04:26.599Z,5.90
2018-12-14T11:05:26.595Z,6.60
2018-12-14T11:06:26.609Z,6.20
2018-12-14T11:07:26.586Z,6.50
2018-12-14T11:08:26.577Z,6.60
2018-12-14T11:09:26.548Z,6.10
2018-12-14T11:10:26.537Z,6.20
2018-12-14T11:11:26.531Z,6.00
2018-12-14T11:12:26.547Z,6.20
2018-12-14T11:13:26.526Z,6.10
2018-12-14T11:14:26.520Z,5.70
2018-12-14T11:15:26.470Z,6.70
2018-12-14T11:16:26.489Z,6.30
2018-12-14T11:17:26.479Z,6.20
2018-12-14T11:18:26.463Z,6.20
2018-12-14T11:19:26.464Z,6.10
2018-12-14T11:20:26.433Z,6.30
2018-12-14T11:21:26.420Z,5.10
2018-12-14T11:22:26.437Z,5.60
2018-12-14T11:23:26.456Z,5.90
2018-12-14T11:24:26.400Z,5.40
2018-12-14T11:25:26.375Z,5.60
2018-12-14T11:26:26.389Z,5.90
2018-12-14T11:27:26.349Z,5.80
2018-12-14T11:28:26.348Z,5.50
2018-12-14T11:29:26.325Z,6.10
2018-12-14T11:30:26.334Z,5.90
2018-12-14T11:31:26.311Z,5.80
2018-12-14T11:32:26.322Z,6.10
2018-12-14T11:33:26.277Z,8.50
2018-12-14T11:34:29.699Z,6.40
2018-12-14T11:35:26.270Z,6.50
2018-12-14T11:36:26.271Z,5.50
2018-12-14T11:37:26.265Z,6.20
2018-12-14T11:38:26.254Z,5.70
2018-12-14T11:39:26.215Z,5.30
2018-12-14T11:40:26.215Z,6.00
2018-12-14T11:41:26.196Z,6.30
2018-12-14T11:42:26.195Z,6.20
2018-12-14T11:43:26.209Z,5.70
2018-12-14T11:44:26.169Z,5.90
2018-12-14T11:45:26.154Z,5.50
2018-12-14T11:46:26.139Z,5.70
2018-12-14T11:47:26.129Z,5.50
2018-12-14T11:48:26.161Z,5.80
2018-12-14T11:49:26.113Z,5.40
2018-12-14T11:50:26.100Z,5.70
2018-12-14T11:51:26.086Z,5.10
2018-12-14T11:52:26.074Z,5.30
2018-12-14T11:53:26.064Z,5.70
2018-12-14T11:54:26.094Z,6.10
2018-12-14T11:55:26.062Z,5.70
2018-12-14T11:56:26.035Z,5.40
2018-12-14T11:57:26.030Z,5.80
2018-12-14T11:58:26.017Z,5.90
2018-12-14T11:59:25.989Z,5.60
2018-12-14T12:00:26.016Z,5.60
2018-12-14T12:01:25.989Z,6.00
2018-12-14T12:02:25.986Z,5.70
2018-12-14T12:03:25.972Z,5.70
2018-12-14T12:04:25.962Z,5.20
2018-12-14T12:05:25.929Z,5.30
2018-12-14T12:06:25.942Z,6.20
2018-12-14T12:07:25.934Z,5.80
2018-12-14T12:08:25.908Z,5.70
2018-12-14T12:09:25.927Z,5.10
2018-12-14T12:10:25.903Z,6.00
2018-12-14T12:11:25.864Z,5.30
2018-12-14T12:12:25.869Z,5.70
2018-12-14T12:13:25.844Z,5.40
2018-12-14T12:14:27.131Z,6.10
2018-12-14T12:15:25.835Z,6.00
2018-12-14T12:16:25.845Z,5.00
2018-12-14T12:17:25.813Z,5.30
2018-12-14T12:18:25.811Z,5.60
2018-12-14T12:19:25.816Z,5.10
2018-12-14T12:20:25.781Z,5.40
2018-12-14T12:21:25.768Z,5.10
2018-12-14T12:22:25.760Z,5.20
2018-12-14T12:23:25.741Z,6.40
2018-12-14T12:24:25.723Z,5.40
2018-12-14T12:25:25.749Z,5.40
2018-12-14T12:26:25.721Z,6.10
2018-12-14T12:27:25.709Z,5.40
2018-12-14T12:28:25.701Z,5.40
2018-12-14T12:29:25.681Z,6.10
2018-12-14T12:30:25.691Z,6.10
2018-12-14T12:31:25.662Z,6.10
2018-12-14T12:32:25.648Z,6.00
2018-12-14T12:33:25.630Z,5.80
2018-12-14T12:34:25.625Z,5.80
2018-12-14T12:35:25.621Z,6.00
2018-12-14T12:36:25.632Z,6.00
2018-12-14T12:37:25.586Z,5.50
2018-12-14T12:38:25.579Z,6.00
2018-12-14T12:39:25.571Z,5.20
2018-12-14T12:40:25.569Z,5.40
2018-12-14T12:41:25.556Z,5.80
2018-12-14T12:42:25.572Z,5.20
2018-12-14T12:43:25.516Z,5.70
2018-12-14T12:44:25.511Z,5.50
2018-12-14T12:45:25.512Z,6.40
2018-12-14T12:46:25.488Z,5.90
2018-12-14T12:47:25.537Z,5.90
2018-12-14T12:48:25.472Z,6.10
2018-12-14T12:49:25.468Z,5.40
2018-12-14T12:50:25.443Z,6.10
2018-12-14T12:51:25.440Z,5.40
2018-12-14T12:52:25.454Z,5.60
2018-12-14T12:53:25.452Z,6.30
2018-12-14T12:54:25.396Z,5.90
2018-12-14T12:55:25.386Z,6.20
2018-12-14T12:56:25.374Z,5.90
2018-12-14T12:57:25.380Z,5.90
2018-12-14T12:58:25.362Z,6.10
2018-12-14T12:59:25.369Z,5.50
2018-12-14T13:00:25.346Z,5.70
2018-12-14T13:01:25.332Z,6.10
2018-12-14T13:02:25.341Z,5.90
2018-12-14T13:03:25.294Z,5.70
2018-12-14T13:04:25.316Z,6.40
2018-12-14T13:05:25.282Z,6.20
2018-12-14T13:06:25.272Z,6.00
2018-12-14T13:07:25.266Z,6.20
2018-12-14T13:08:25.254Z,6.90